Time;durP1;ratioP1;P1;durP2;ratioP2;P2;SDS_P1;SDS_P2;PMS_P1;PMS_P2;Temp;Humidity;BMP_temperature;BMP_pressure;BME280_temperature;BME280_humidity;BME280_pressure;Samples;Min_cycle;Max_cycle;Signal;HPM_P1;HPM_P2
2024/03/24 00:00:24;;;;;;;6.03;1.88;;;10.20;50.80;;;;;;5056211;28;20239;-58
2024/03/24 00:03:08;;;;;;;6.90;2.25;;;10.20;50.90;;;;;;5058699;28;20035;-60
2024/03/24 00:05:53;;;;;;;5.10;1.67;;;10.20;51.00;;;;;;5057787;28;20670;-58
2024/03/24 00:08:37;;;;;;;4.97;2.15;;;10.30;51.20;;;;;;5049228;28;20097;-57
2024/03/24 00:11:25;;;;;;;4.88;1.75;;;10.20;51.10;;;;;;5063045;28;20494;-58
2024/03/24 00:14:10;;;;;;;7.70;1.95;;;10.30;51.20;;;;;;5058887;28;20797;-57
2024/03/24 00:16:55;;;;;;;11.02;2.47;;;10.20;51.10;;;;;;5057368;28;20051;-59
2024/03/24 00:19:40;;;;;;;7.93;1.88;;;10.30;51.30;;;;;;5061404;28;20103;-59
2024/03/24 00:22:25;;;;;;;5.70;1.55;;;10.30;51.30;;;;;;5065479;28;20461;-58
2024/03/24 00:25:10;;;;;;;4.82;1.67;;;10.30;51.40;;;;;;5051850;28;20170;-58
2024/03/24 00:27:55;;;;;;;4.35;1.50;;;10.30;51.40;;;;;;5053069;28;20093;-58
2024/03/24 00:30:40;;;;;;;5.13;1.90;;;10.30;51.40;;;;;;5054035;28;20040;-57
2024/03/24 00:33:24;;;;;;;6.90;2.58;;;10.20;51.20;;;;;;5052404;28;20316;-57
2024/03/24 00:36:09;;;;;;;4.75;1.50;;;10.20;51.20;;;;;;5056223;28;20043;-57
2024/03/24 00:38:54;;;;;;;7.38;2.00;;;10.20;51.20;;;;;;5047624;28;20504;-58
2024/03/24 00:41:38;;;;;;;4.57;1.58;;;10.20;51.20;;;;;;5055846;28;20039;-58
2024/03/24 00:44:24;;;;;;;5.35;2.13;;;10.20;51.30;;;;;;5063054;28;20035;-58
2024/03/24 00:47:10;;;;;;;4.70;1.85;;;10.20;51.40;;;;;;5049034;28;20630;-57
2024/03/24 00:49:55;;;;;;;5.57;1.63;;;10.20;51.40;;;;;;5053796;28;20409;-57
2024/03/24 00:52:39;;;;;;;4.70;1.50;;;10.20;51.40;;;;;;5048111;28;20430;-58
2024/03/24 00:55:24;;;;;;;8.38;1.95;;;10.20;51.50;;;;;;5053668;28;20055;-57
2024/03/24 00:58:09;;;;;;;4.80;2.38;;;10.20;51.50;;;;;;5068045;28;20132;-57
2024/03/24 01:00:56;;;;;;;5.30;1.50;;;10.20;51.50;;;;;;5073741;28;20551;-58
2024/03/24 01:03:40;;;;;;;5.63;1.88;;;10.20;51.60;;;;;;5080019;28;20108;-58
2024/03/24 01:06:25;;;;;;;6.47;2.17;;;10.30;51.80;;;;;;5066368;28;20719;-58
2024/03/24 01:09:09;;;;;;;4.28;1.40;;;10.30;51.80;;;;;;5073549;28;20128;-57
2024/03/24 01:11:54;;;;;;;10.48;2.33;;;10.30;51.80;;;;;;5073463;28;20052;-58
2024/03/24 01:14:39;;;;;;;4.95;1.60;;;10.30;51.80;;;;;;5074472;28;20046;-58
2024/03/24 01:17:24;;;;;;;7.95;2.30;;;10.30;51.80;;;;;;5073459;28;20042;-58
2024/03/24 01:20:12;;;;;;;5.68;1.92;;;10.30;51.80;;;;;;5077970;28;20552;-57
2024/03/24 01:22:56;;;;;;;5.80;2.05;;;10.40;52.00;;;;;;5073164;28;20035;-58
2024/03/24 01:25:42;;;;;;;4.20;2.00;;;10.30;51.80;;;;;;5059745;28;20314;-58
2024/03/24 01:28:27;;;;;;;6.45;2.05;;;10.40;52.00;;;;;;5073400;28;20096;-60
2024/03/24 01:31:11;;;;;;;5.15;1.52;;;10.40;52.00;;;;;;5070077;28;20699;-58
2024/03/24 01:33:57;;;;;;;2.72;1.58;;;10.40;52.00;;;;;;5076442;27;20272;-57
2024/03/24 01:36:42;;;;;;;6.20;2.13;;;10.40;52.00;;;;;;5081051;28;20718;-58
2024/03/24 01:39:27;;;;;;;7.15;2.75;;;10.40;52.00;;;;;;5078081;28;20043;-58
2024/03/24 01:42:12;;;;;;;6.05;1.92;;;10.40;52.00;;;;;;5049411;28;20075;-58
2024/03/24 01:44:56;;;;;;;6.07;3.00;;;10.40;52.00;;;;;;5078269;28;20509;-57
2024/03/24 01:47:41;;;;;;;5.20;2.17;;;10.40;52.10;;;;;;5078184;28;20038;-58
2024/03/24 01:50:25;;;;;;;7.93;2.47;;;10.40;52.10;;;;;;5074818;28;20039;-58
2024/03/24 01:53:10;;;;;;;4.03;1.75;;;10.40;52.10;;;;;;5062909;28;20242;-57
2024/03/24 01:55:55;;;;;;;8.10;2.17;;;10.50;52.30;;;;;;5078718;28;20034;-58
2024/03/24 01:58:39;;;;;;;6.97;2.40;;;10.50;52.20;;;;;;5064975;28;20062;-58
2024/03/24 02:01:24;;;;;;;6.53;2.20;;;10.40;52.10;;;;;;5065290;28;20253;-59
2024/03/24 02:04:12;;;;;;;5.57;3.00;;;10.50;52.30;;;;;;5075900;28;20303;-57
2024/03/24 02:06:56;;;;;;;6.97;2.10;;;10.50;52.30;;;;;;5066407;28;20105;-58
2024/03/24 02:09:42;;;;;;;7.90;2.17;;;10.50;52.20;;;;;;5076167;28;20039;-58
2024/03/24 02:12:26;;;;;;;6.13;2.30;;;10.50;52.20;;;;;;5078420;27;20039;-58
2024/03/24 02:15:14;;;;;;;5.30;2.55;;;10.50;52.30;;;;;;5074209;28;20034;-58
2024/03/24 02:17:58;;;;;;;5.43;2.03;;;10.50;52.30;;;;;;5063725;28;20035;-58
2024/03/24 02:20:43;;;;;;;6.05;2.00;;;10.50;52.30;;;;;;5064850;28;20812;-58
2024/03/24 02:23:27;;;;;;;6.68;2.75;;;10.40;52.10;;;;;;5073463;28;20341;-58
2024/03/24 02:26:12;;;;;;;4.32;2.08;;;10.50;52.30;;;;;;5079536;28;20511;-58
2024/03/24 02:28:57;;;;;;;5.68;2.38;;;10.50;52.30;;;;;;5077903;28;20051;-58
2024/03/24 02:31:41;;;;;;;6.90;2.58;;;10.50;52.30;;;;;;5070792;28;20039;-58
2024/03/24 02:34:26;;;;;;;5.47;2.38;;;10.40;52.10;;;;;;5069303;28;20043;-56
2024/03/24 02:37:10;;;;;;;7.13;2.25;;;10.50;52.40;;;;;;5064439;28;20444;-57
2024/03/24 02:39:55;;;;;;;4.40;2.42;;;10.50;52.40;;;;;;5069077;28;20134;-58
2024/03/24 02:42:39;;;;;;;6.03;2.08;;;10.50;52.40;;;;;;5080853;28;20046;-58
2024/03/24 02:45:24;;;;;;;7.75;2.65;;;10.50;52.40;;;;;;5078475;28;20111;-57
2024/03/24 02:48:09;;;;;;;3.63;2.03;;;10.50;52.40;;;;;;5068894;28;20043;-57
2024/03/24 02:50:53;;;;;;;6.63;2.38;;;10.40;52.20;;;;;;5081473;28;20179;-58
2024/03/24 02:53:38;;;;;;;4.20;2.28;;;10.50;52.40;;;;;;5069329;28;20039;-58
2024/03/24 02:56:22;;;;;;;7.10;2.53;;;10.40;52.20;;;;;;5077474;28;20368;-58
2024/03/24 02:59:07;;;;;;;9.05;3.13;;;10.50;52.50;;;;;;5082563;28;20513;-58
2024/03/24 03:01:51;;;;;;;5.55;2.40;;;10.50;52.40;;;;;;5063685;28;20075;-58
2024/03/24 03:04:36;;;;;;;7.70;3.13;;;10.50;52.40;;;;;;5083901;28;20134;-58
2024/03/24 03:07:20;;;;;;;6.40;3.30;;;10.40;52.20;;;;;;5069367;28;20039;-58
2024/03/24 03:10:08;;;;;;;4.15;2.53;;;10.40;52.30;;;;;;5081397;28;20422;-58
2024/03/24 03:12:53;;;;;;;8.15;2.70;;;10.50;52.40;;;;;;5078977;28;20047;-61
2024/03/24 03:15:37;;;;;;;6.88;3.17;;;10.40;52.20;;;;;;5080088;28;20116;-59
2024/03/24 03:18:22;;;;;;;6.20;2.85;;;10.40;52.30;;;;;;5075612;28;20250;-59
2024/03/24 03:21:06;;;;;;;8.85;3.15;;;10.40;52.30;;;;;;5087639;28;20437;-58
2024/03/24 03:23:54;;;;;;;4.28;2.53;;;10.40;52.30;;;;;;5078351;28;20714;-58
2024/03/24 03:26:39;;;;;;;5.75;2.65;;;10.40;52.30;;;;;;5068150;28;20039;-59
2024/03/24 03:29:23;;;;;;;7.22;2.70;;;10.40;52.30;;;;;;5077362;28;20031;-58
2024/03/24 03:32:08;;;;;;;4.60;2.63;;;10.40;52.40;;;;;;5077279;28;20696;-58
2024/03/24 03:34:54;;;;;;;6.10;2.75;;;10.40;52.40;;;;;;5084200;28;20081;-58
2024/03/24 03:37:38;;;;;;;7.07;2.50;;;10.40;52.40;;;;;;5077468;28;20043;-58
2024/03/24 03:40:22;;;;;;;8.75;2.67;;;10.40;52.40;;;;;;5085035;28;20101;-58
2024/03/24 03:43:07;;;;;;;5.47;2.90;;;10.40;52.50;;;;;;5084097;28;20145;-59
2024/03/24 03:45:53;;;;;;;6.30;2.67;;;10.40;52.50;;;;;;5069334;28;20047;-57
2024/03/24 03:48:42;;;;;;;6.50;2.20;;;10.40;52.50;;;;;;5082251;28;20422;-59
2024/03/24 03:51:37;;;;;;;6.38;2.75;;;10.40;52.80;;;;;;5070295;28;20693;-58
2024/03/24 03:54:22;;;;;;;5.35;2.40;;;10.40;52.50;;;;;;5069467;28;20031;-59
2024/03/24 03:57:06;;;;;;;7.00;2.30;;;10.40;52.50;;;;;;5067371;28;20621;-58
2024/03/24 03:59:51;;;;;;;6.28;2.67;;;10.40;52.50;;;;;;5072973;28;20452;-59
2024/03/24 04:02:36;;;;;;;7.93;2.85;;;10.40;52.50;;;;;;5079960;28;20079;-58
2024/03/24 04:05:21;;;;;;;5.72;2.50;;;10.30;52.30;;;;;;5073270;28;20132;-58
2024/03/24 04:08:07;;;;;;;10.15;2.70;;;10.40;53.10;;;;;;5070883;28;20035;-59
2024/03/24 04:10:52;;;;;;;6.82;2.92;;;10.30;52.40;;;;;;5070253;28;20137;-59
2024/03/24 04:13:37;;;;;;;5.90;2.83;;;10.30;52.50;;;;;;5065979;28;20521;-58
2024/03/24 04:16:21;;;;;;;7.18;2.47;;;10.30;52.60;;;;;;5075211;28;20330;-58
2024/03/24 04:19:07;;;;;;;8.27;3.03;;;10.30;52.60;;;;;;5074030;28;20051;-58
2024/03/24 04:21:52;;;;;;;6.50;2.65;;;10.20;52.50;;;;;;5072550;28;20372;-58
2024/03/24 04:24:37;;;;;;;7.82;2.83;;;10.20;52.50;;;;;;5073108;28;20074;-58
2024/03/24 04:27:22;;;;;;;5.95;2.65;;;10.20;52.60;;;;;;5072782;28;20455;-58
2024/03/24 04:30:07;;;;;;;6.90;2.75;;;10.10;52.40;;;;;;5078818;28;20091;-59
2024/03/24 04:32:52;;;;;;;8.48;3.28;;;10.10;52.50;;;;;;5078327;28;20303;-59
2024/03/24 04:35:36;;;;;;;6.25;2.50;;;10.10;52.50;;;;;;5067777;28;20047;-58
2024/03/24 04:38:21;;;;;;;11.05;3.00;;;10.10;52.60;;;;;;5067580;28;20449;-59
2024/03/24 04:41:06;;;;;;;13.23;3.63;;;10.00;52.50;;;;;;5072766;28;20039;-57
2024/03/24 04:43:51;;;;;;;6.78;3.30;;;10.10;52.70;;;;;;5075415;28;20124;-58
2024/03/24 04:46:35;;;;;;;7.18;3.08;;;10.00;52.60;;;;;;5074396;28;20438;-57
2024/03/24 04:49:20;;;;;;;6.97;2.80;;;10.00;52.60;;;;;;5087381;28;20030;-56
2024/03/24 04:52:05;;;;;;;8.27;3.67;;;10.00;52.70;;;;;;5071729;27;20433;-57
2024/03/24 04:54:49;;;;;;;7.82;2.88;;;9.90;52.60;;;;;;5077167;28;20093;-57
2024/03/24 04:57:34;;;;;;;5.50;3.08;;;9.90;52.60;;;;;;5067405;28;20601;-57
2024/03/24 05:00:19;;;;;;;6.93;3.15;;;9.90;52.70;;;;;;5063485;28;20121;-58
2024/03/24 05:03:04;;;;;;;6.10;3.42;;;9.80;52.60;;;;;;5071836;28;20119;-57
2024/03/24 05:05:49;;;;;;;6.13;2.60;;;9.80;52.70;;;;;;5076881;28;20062;-57
2024/03/24 05:08:37;;;;;;;6.35;3.55;;;9.80;52.70;;;;;;5086114;28;20038;-57
2024/03/24 05:11:22;;;;;;;6.90;2.90;;;9.80;52.80;;;;;;5066971;28;20066;-57
2024/03/24 05:14:07;;;;;;;7.32;2.85;;;9.80;52.80;;;;;;5072433;28;20051;-57
2024/03/24 05:16:53;;;;;;;9.43;2.95;;;9.80;52.90;;;;;;5073424;28;20063;-58
2024/03/24 05:19:38;;;;;;;5.82;3.08;;;9.70;52.70;;;;;;5077679;28;20511;-56
2024/03/24 05:22:22;;;;;;;10.93;4.50;;;9.80;53.00;;;;;;5077798;28;20319;-58
2024/03/24 05:25:08;;;;;;;7.38;3.53;;;9.70;52.80;;;;;;5072166;28;20105;-61
2024/03/24 05:27:53;;;;;;;7.50;2.97;;;9.70;52.80;;;;;;5066322;28;20542;-57
2024/03/24 05:30:37;;;;;;;7.15;2.78;;;9.70;52.90;;;;;;5083448;28;20066;-58
2024/03/24 05:33:22;;;;;;;7.75;3.03;;;9.70;52.90;;;;;;5071833;28;20131;-58
2024/03/24 05:36:07;;;;;;;9.23;3.00;;;9.80;53.10;;;;;;5082847;28;20092;-58
2024/03/24 05:38:52;;;;;;;5.90;3.00;;;9.70;53.00;;;;;;5075184;28;20596;-60
2024/03/24 05:41:36;;;;;;;7.85;3.42;;;9.70;53.00;;;;;;5079846;28;20459;-58
2024/03/24 05:44:21;;;;;;;7.18;3.17;;;9.70;53.00;;;;;;5073962;28;20097;-57
2024/03/24 05:47:05;;;;;;;8.45;3.03;;;9.70;53.00;;;;;;5064573;28;20198;-57
2024/03/24 05:49:50;;;;;;;7.53;3.28;;;9.70;53.00;;;;;;5076705;28;21010;-58
2024/03/24 05:52:37;;;;;;;5.38;2.75;;;9.80;53.30;;;;;;5074339;28;20570;-58
2024/03/24 05:55:22;;;;;;;5.50;3.20;;;9.80;53.30;;;;;;5073732;28;20054;-58
2024/03/24 05:58:08;;;;;;;5.30;3.38;;;9.80;53.30;;;;;;5068305;28;20270;-57
2024/03/24 06:00:54;;;;;;;6.75;3.28;;;9.70;53.20;;;;;;5066079;28;20039;-57
2024/03/24 06:03:38;;;;;;;9.95;3.90;;;9.70;53.20;;;;;;5079837;28;20047;-57
2024/03/24 06:06:24;;;;;;;9.00;3.20;;;9.80;53.40;;;;;;5072708;28;20038;-57
2024/03/24 06:09:09;;;;;;;10.18;4.45;;;9.80;53.40;;;;;;5081349;28;20410;-57
2024/03/24 06:11:54;;;;;;;7.22;3.10;;;9.80;53.40;;;;;;5068187;28;20461;-58
2024/03/24 06:14:38;;;;;;;5.50;2.72;;;9.80;53.50;;;;;;5074794;28;20038;-57
2024/03/24 06:17:23;;;;;;;8.40;3.50;;;9.80;53.50;;;;;;5081830;28;20449;-58
2024/03/24 06:20:09;;;;;;;10.00;2.88;;;9.80;53.50;;;;;;5066252;28;20454;-57
2024/03/24 06:22:53;;;;;;;5.07;3.05;;;9.90;53.70;;;;;;5071261;28;21200;-57
2024/03/24 06:25:38;;;;;;;6.57;3.10;;;9.80;53.50;;;;;;5067765;28;20046;-58
2024/03/24 06:28:23;;;;;;;5.00;2.92;;;9.90;53.70;;;;;;5068142;28;20093;-59
2024/03/24 06:31:07;;;;;;;6.78;2.95;;;9.90;53.80;;;;;;5083771;28;20665;-58
2024/03/24 06:33:52;;;;;;;5.93;2.65;;;9.90;53.80;;;;;;5071493;28;20669;-58
2024/03/24 06:36:40;;;;;;;5.53;2.80;;;9.90;53.70;;;;;;5080944;28;20391;-58
2024/03/24 06:39:24;;;;;;;6.95;2.97;;;9.90;53.80;;;;;;5069312;28;20038;-58
2024/03/24 06:42:09;;;;;;;8.30;3.83;;;10.00;53.90;;;;;;5073930;28;20050;-59
2024/03/24 06:44:56;;;;;;;8.40;2.90;;;10.00;53.90;;;;;;5079289;28;20032;-58
2024/03/24 06:47:40;;;;;;;11.80;4.47;;;10.00;53.90;;;;;;5077649;28;20344;-58
2024/03/24 06:50:25;;;;;;;5.68;3.03;;;10.00;53.90;;;;;;5077554;28;20392;-58
2024/03/24 06:53:13;;;;;;;9.98;3.88;;;10.00;53.90;;;;;;5081497;28;20385;-59
2024/03/24 06:55:57;;;;;;;7.75;3.13;;;10.00;53.90;;;;;;5082703;28;20039;-58
2024/03/24 06:58:42;;;;;;;10.07;3.10;;;10.10;54.10;;;;;;5073683;28;20346;-58
2024/03/24 07:01:27;;;;;;;5.57;2.88;;;10.10;54.00;;;;;;5076659;28;20426;-58
2024/03/24 07:04:11;;;;;;;5.82;2.70;;;10.10;54.00;;;;;;5064822;28;20047;-59
2024/03/24 07:06:58;;;;;;;8.30;3.10;;;10.10;54.00;;;;;;5075699;28;20039;-59
2024/03/24 07:09:42;;;;;;;6.85;2.95;;;10.20;54.20;;;;;;5076073;28;20402;-59
2024/03/24 07:12:27;;;;;;;6.13;2.78;;;10.20;54.10;;;;;;5078008;28;20063;-58
2024/03/24 07:15:11;;;;;;;6.63;3.10;;;10.30;54.30;;;;;;5086235;28;20043;-58
2024/03/24 07:17:56;;;;;;;5.95;2.78;;;10.30;54.20;;;;;;5078429;27;20088;-58
2024/03/24 07:20:41;;;;;;;5.85;2.80;;;10.40;54.40;;;;;;5078187;28;20137;-59
2024/03/24 07:23:27;;;;;;;9.77;3.55;;;10.40;54.30;;;;;;5064891;28;20039;-58
2024/03/24 07:26:11;;;;;;;8.75;2.95;;;10.40;54.30;;;;;;5081562;28;20201;-58
2024/03/24 07:28:56;;;;;;;5.60;2.80;;;10.50;54.40;;;;;;5074841;27;20429;-59
2024/03/24 07:31:40;;;;;;;7.07;3.25;;;10.50;54.40;;;;;;5076552;28;20042;-59
2024/03/24 07:34:25;;;;;;;5.93;2.88;;;10.60;54.60;;;;;;5077290;28;20093;-58
2024/03/24 07:37:09;;;;;;;5.78;2.78;;;10.60;54.50;;;;;;5075387;28;20366;-59
2024/03/24 07:39:54;;;;;;;5.65;2.80;;;10.60;54.40;;;;;;5065428;28;20672;-63
2024/03/24 07:42:39;;;;;;;4.63;3.13;;;10.70;54.60;;;;;;5066574;28;20043;-59
2024/03/24 07:45:24;;;;;;;5.28;2.65;;;10.80;54.70;;;;;;5070760;28;20739;-59
2024/03/24 07:48:10;;;;;;;8.32;2.97;;;10.80;54.60;;;;;;5071676;28;20578;-58
2024/03/24 07:50:55;;;;;;;5.55;2.97;;;10.90;54.70;;;;;;5073323;28;20606;-59
2024/03/24 07:53:41;;;;;;;7.30;2.60;;;10.90;54.70;;;;;;5075169;28;20047;-60
2024/03/24 07:56:25;;;;;;;5.05;3.05;;;11.00;54.90;;;;;;5090978;28;20093;-58
2024/03/24 07:59:10;;;;;;;9.23;2.20;;;11.10;55.50;;;;;;5068691;28;20147;-58
2024/03/24 08:01:54;;;;;;;6.07;2.35;;;11.20;55.90;;;;;;5077290;28;20090;-58
2024/03/24 08:04:39;;;;;;;6.60;2.38;;;11.30;56.10;;;;;;5073452;28;20466;-58
2024/03/24 08:07:24;;;;;;;7.00;2.47;;;11.40;56.30;;;;;;5071293;28;20043;-58
2024/03/24 08:10:12;;;;;;;6.95;2.33;;;11.50;56.50;;;;;;5074571;28;20100;-58
2024/03/24 08:12:57;;;;;;;7.82;2.92;;;11.60;56.60;;;;;;5070035;28;20043;-59
2024/03/24 08:15:42;;;;;;;8.10;2.50;;;11.60;56.50;;;;;;5074329;28;20094;-58
2024/03/24 08:18:26;;;;;;;4.72;2.60;;;11.70;56.70;;;;;;5082444;28;20129;-58
2024/03/24 08:21:11;;;;;;;8.50;2.22;;;11.80;56.90;;;;;;5071795;28;20077;-59
2024/03/24 08:23:56;;;;;;;5.07;2.25;;;11.90;57.00;;;;;;5061326;28;20519;-58
2024/03/24 08:26:40;;;;;;;4.55;2.05;;;11.90;56.90;;;;;;5061839;28;20051;-57
2024/03/24 08:29:25;;;;;;;6.07;2.53;;;12.00;57.00;;;;;;5076891;28;20036;-58
2024/03/24 08:32:10;;;;;;;4.15;2.35;;;12.10;57.10;;;;;;5076790;28;20586;-58
2024/03/24 08:34:54;;;;;;;5.18;2.42;;;12.10;57.10;;;;;;5067220;28;20380;-63
2024/03/24 08:37:39;;;;;;;7.55;2.13;;;12.20;57.20;;;;;;5074576;28;20043;-61
2024/03/24 08:40:23;;;;;;;5.80;2.30;;;12.30;57.30;;;;;;5076138;28;20441;-58
2024/03/24 08:43:08;;;;;;;4.88;1.92;;;12.30;57.20;;;;;;5074097;28;20039;-58
2024/03/24 08:45:52;;;;;;;6.43;2.13;;;12.30;57.20;;;;;;5078763;28;20523;-59
2024/03/24 08:48:37;;;;;;;6.32;2.40;;;12.40;57.40;;;;;;5074459;28;20453;-58
2024/03/24 08:51:22;;;;;;;6.30;1.90;;;12.50;57.50;;;;;;5070816;28;20468;-59
2024/03/24 08:54:06;;;;;;;9.18;2.50;;;12.50;57.50;;;;;;5068629;28;20525;-59
2024/03/24 08:56:51;;;;;;;5.82;2.63;;;12.60;57.60;;;;;;5079070;28;20062;-59
2024/03/24 08:59:35;;;;;;;4.07;2.15;;;12.80;57.70;;;;;;5081249;28;20051;-59
2024/03/24 09:02:20;;;;;;;5.60;3.03;;;12.90;57.80;;;;;;5071325;28;20082;-59
2024/03/24 09:05:05;;;;;;;5.03;2.75;;;13.00;57.70;;;;;;5072936;28;20046;-59
2024/03/24 09:07:49;;;;;;;4.80;2.58;;;13.10;57.70;;;;;;5074158;28;20111;-59
2024/03/24 09:10:34;;;;;;;6.82;2.53;;;13.20;57.70;;;;;;5072373;28;20075;-59
2024/03/24 09:13:18;;;;;;;8.30;2.55;;;13.30;57.70;;;;;;5071445;28;20070;-59
2024/03/24 09:16:04;;;;;;;5.45;1.88;;;13.40;57.70;;;;;;5068586;28;20555;-59
2024/03/24 09:18:48;;;;;;;4.70;2.47;;;13.50;57.60;;;;;;5070337;28;20040;-58
2024/03/24 09:21:33;;;;;;;3.15;2.22;;;13.60;57.70;;;;;;5069294;28;20089;-59
2024/03/24 09:24:18;;;;;;;4.32;2.17;;;13.70;57.60;;;;;;5064067;28;20489;-59
2024/03/24 09:27:03;;;;;;;6.38;2.00;;;13.80;57.60;;;;;;5063924;28;20699;-59
2024/03/24 09:29:47;;;;;;;7.90;2.55;;;13.90;57.60;;;;;;5078006;28;20470;-60
2024/03/24 09:32:32;;;;;;;8.32;2.70;;;14.00;57.70;;;;;;5070782;28;20127;-60
2024/03/24 09:35:16;;;;;;;8.82;2.80;;;14.00;57.50;;;;;;5069538;28;20047;-60
2024/03/24 09:38:01;;;;;;;10.00;2.75;;;14.10;57.60;;;;;;5071008;28;20529;-60
2024/03/24 09:40:47;;;;;;;8.48;3.00;;;14.20;57.50;;;;;;5069264;28;20063;-60
2024/03/24 09:43:32;;;;;;;7.28;3.13;;;14.30;57.40;;;;;;5075937;28;20267;-60
2024/03/24 09:46:18;;;;;;;5.13;2.60;;;14.30;57.10;;;;;;5078938;28;20143;-60
2024/03/24 09:49:03;;;;;;;6.20;2.67;;;14.40;57.00;;;;;;5070120;28;20527;-60
2024/03/24 09:51:49;;;;;;;6.13;2.67;;;14.50;57.00;;;;;;5071221;28;20113;-60
2024/03/24 09:54:33;;;;;;;10.38;2.88;;;14.50;56.70;;;;;;5064136;28;20355;-59
2024/03/24 09:57:18;;;;;;;5.25;2.30;;;14.70;56.80;;;;;;5074538;28;20043;-60
2024/03/24 10:00:06;;;;;;;5.93;3.00;;;14.70;56.50;;;;;;5070697;28;20082;-60
2024/03/24 10:02:57;;;;;;;8.30;2.58;;;14.80;56.40;;;;;;5069609;28;20105;-60
2024/03/24 10:05:42;;;;;;;7.13;2.30;;;14.80;56.30;;;;;;5069647;28;20354;-60
2024/03/24 10:08:35;;;;;;;8.77;2.75;;;14.90;56.30;;;;;;5069348;28;20632;-60
2024/03/24 10:11:30;;;;;;;4.68;2.35;;;15.00;56.20;;;;;;5067990;28;20572;-60
2024/03/24 10:14:24;;;;;;;6.50;2.70;;;15.20;56.20;;;;;;5060683;28;20251;-60
2024/03/24 10:17:18;;;;;;;3.90;2.40;;;15.40;56.20;;;;;;5064666;28;20571;-60
2024/03/24 10:20:02;;;;;;;5.07;2.55;;;15.60;56.20;;;;;;5072499;28;20121;-60
2024/03/24 10:22:54;;;;;;;4.85;2.55;;;15.70;56.10;;;;;;5072473;28;20043;-61
2024/03/24 10:25:39;;;;;;;5.55;2.80;;;15.90;56.10;;;;;;5066151;28;20426;-60
2024/03/24 10:28:27;;;;;;;5.93;2.10;;;16.00;56.10;;;;;;5070107;28;20039;-60
2024/03/24 10:31:12;;;;;;;4.72;2.20;;;16.10;56.00;;;;;;5059370;28;20372;-60
2024/03/24 10:33:57;;;;;;;4.63;2.80;;;16.20;55.90;;;;;;5071134;28;20595;-60
2024/03/24 10:36:43;;;;;;;6.03;2.85;;;16.30;55.90;;;;;;5073396;28;20703;-61
2024/03/24 10:39:28;;;;;;;4.85;2.70;;;16.30;55.70;;;;;;5077301;28;20055;-61
2024/03/24 10:42:18;;;;;;;5.32;3.05;;;16.40;55.80;;;;;;5067798;28;20192;-60
2024/03/24 10:45:04;;;;;;;4.97;2.55;;;16.40;55.60;;;;;;5073010;28;20151;-61
2024/03/24 10:48:01;;;;;;;4.95;2.67;;;16.50;56.30;;;;;;5070343;27;20117;-60
2024/03/24 10:50:46;;;;;;;4.60;2.70;;;16.60;55.60;;;;;;5072900;28;20124;-61
2024/03/24 10:53:34;;;;;;;5.65;2.67;;;16.70;55.60;;;;;;5068187;28;20043;-61
2024/03/24 10:56:19;;;;;;;5.05;2.65;;;16.90;55.60;;;;;;5083417;28;20301;-60
2024/03/24 10:59:04;;;;;;;5.10;2.15;;;16.90;55.20;;;;;;5069207;28;20058;-61
2024/03/24 11:01:49;;;;;;;5.63;2.55;;;16.90;55.00;;;;;;5073338;28;20093;-61
2024/03/24 11:04:33;;;;;;;6.32;2.90;;;16.90;55.00;;;;;;5068506;28;20067;-61
2024/03/24 11:07:18;;;;;;;3.75;2.28;;;16.90;54.90;;;;;;5072500;28;20282;-61
2024/03/24 11:10:04;;;;;;;2.83;2.10;;;16.90;54.80;;;;;;5066373;28;20282;-60
2024/03/24 11:12:49;;;;;;;4.53;2.45;;;16.90;54.80;;;;;;5073714;28;20752;-61
2024/03/24 11:15:34;;;;;;;3.47;1.85;;;16.90;54.70;;;;;;5078652;28;20123;-60
2024/03/24 11:18:27;;;;;;;4.10;2.17;;;16.90;54.60;;;;;;5068254;28;20570;-61
2024/03/24 11:21:34;;;;;;;3.67;1.70;;;16.90;54.60;;;;;;5078417;28;20089;-61
2024/03/24 11:24:26;;;;;;;4.32;1.83;;;16.90;54.30;;;;;;5068440;28;20217;-62
2024/03/24 11:27:13;;;;;;;3.33;1.60;;;16.90;54.20;;;;;;5069996;28;20548;-61
2024/03/24 11:29:58;;;;;;;3.60;2.00;;;17.00;54.30;;;;;;5074901;28;20039;-61
2024/03/24 11:32:59;;;;;;;4.65;1.92;;;17.00;54.00;;;;;;5073282;28;20043;-61
2024/03/24 11:35:45;;;;;;;31.50;3.42;;;17.00;53.70;;;;;;5074537;28;20511;-60
2024/03/24 11:38:30;;;;;;;6.75;2.42;;;17.00;53.60;;;;;;5088030;28;20096;-59
2024/03/24 11:41:16;;;;;;;10.68;5.15;;;16.90;53.10;;;;;;5081287;28;20047;-58
2024/03/24 11:44:01;;;;;;;12.05;4.70;;;16.90;53.20;;;;;;5079920;28;20043;-59
2024/03/24 11:47:00;;;;;;;10.52;4.30;;;16.90;53.50;;;;;;5087667;28;20687;-59
2024/03/24 11:49:50;;;;;;;6.05;3.90;;;16.90;53.50;;;;;;5073789;28;20587;-59
2024/03/24 11:52:35;;;;;;;9.80;4.10;;;17.10;53.70;;;;;;5072489;28;20132;-60
2024/03/24 11:55:21;;;;;;;6.32;3.10;;;17.10;53.50;;;;;;5075183;27;20686;-59
2024/03/24 11:58:06;;;;;;;9.38;3.65;;;17.20;53.50;;;;;;5065491;28;20058;-59
2024/03/24 12:00:51;;;;;;;6.78;3.20;;;17.20;53.20;;;;;;5067359;28;20074;-60
2024/03/24 12:03:36;;;;;;;6.50;3.80;;;17.30;53.40;;;;;;5068388;28;20051;-62
2024/03/24 12:06:21;;;;;;;4.90;3.10;;;17.30;53.20;;;;;;5085377;28;20603;-61
2024/03/24 12:09:06;;;;;;;7.78;3.15;;;17.40;53.30;;;;;;5066429;28;20372;-58
2024/03/24 12:11:54;;;;;;;14.20;3.25;;;17.40;53.10;;;;;;5075133;28;20560;-59
2024/03/24 12:14:39;;;;;;;10.10;2.67;;;17.50;53.10;;;;;;5071914;28;20054;-60
2024/03/24 12:17:24;;;;;;;7.75;3.63;;;17.50;52.90;;;;;;5072318;28;20280;-59
2024/03/24 12:20:10;;;;;;;6.13;3.38;;;17.60;52.90;;;;;;5078960;28;20097;-63
2024/03/24 12:22:55;;;;;;;10.43;4.10;;;17.70;52.90;;;;;;5082249;28;20544;-60
2024/03/24 12:25:44;;;;;;;8.93;3.90;;;17.80;52.90;;;;;;5069777;28;20040;-59
2024/03/24 12:28:29;;;;;;;12.82;5.40;;;17.90;52.90;;;;;;5073390;28;20062;-60
2024/03/24 12:31:14;;;;;;;18.60;9.27;;;18.00;52.90;;;;;;5078667;28;20235;-59
2024/03/24 12:34:00;;;;;;;19.02;8.73;;;18.10;53.00;;;;;;5071653;28;20413;-58
2024/03/24 12:36:46;;;;;;;19.67;9.38;;;18.10;52.90;;;;;;5079066;28;20126;-58
2024/03/24 12:39:31;;;;;;;23.05;12.75;;;18.20;53.00;;;;;;5072333;28;20424;-56
2024/03/24 12:42:16;;;;;;;27.08;15.60;;;18.20;53.50;;;;;;5073330;28;20693;-59
2024/03/24 12:45:10;;;;;;;28.27;14.63;;;18.30;53.10;;;;;;5068810;28;20058;-59
2024/03/24 12:47:56;;;;;;;37.63;20.67;;;18.40;53.10;;;;;;5070646;28;20436;-59
2024/03/24 12:50:40;;;;;;;50.70;28.50;;;18.40;53.10;;;;;;5077414;28;20115;-58
2024/03/24 12:53:51;;;;;;;56.83;32.22;;;18.40;53.20;;;;;;5065470;28;20114;-59
2024/03/24 12:56:38;;;;;;;47.60;28.60;;;18.40;53.20;;;;;;5084576;28;20050;-58
2024/03/24 12:59:23;;;;;;;48.90;24.75;;;18.50;53.50;;;;;;5064294;28;20109;-58
2024/03/24 13:02:08;;;;;;;60.00;33.50;;;18.50;53.50;;;;;;5064774;28;20646;-61
2024/03/24 13:04:53;;;;;;;50.70;28.95;;;18.50;53.40;;;;;;5068310;28;20085;-58
2024/03/24 13:07:37;;;;;;;93.22;52.45;;;18.50;53.30;;;;;;5079174;28;20539;-59
2024/03/24 13:10:25;;;;;;;78.47;46.58;;;18.60;53.40;;;;;;5070366;28;20106;-59
2024/03/24 13:13:09;;;;;;;138.80;82.13;;;18.70;53.60;;;;;;5072920;28;20706;-59
2024/03/24 13:15:54;;;;;;;146.90;87.97;;;18.70;53.60;;;;;;5067361;28;20104;-61
2024/03/24 13:19:01;;;;;;;107.05;64.68;;;18.80;53.90;;;;;;5074536;28;20800;-59
2024/03/24 13:22:06;;;;;;;139.65;83.25;;;18.90;54.00;;;;;;5077210;28;20807;-59
2024/03/24 13:24:55;;;;;;;106.07;62.75;;;18.90;54.10;;;;;;5062769;28;20040;-59
2024/03/24 13:27:53;;;;;;;121.72;68.35;;;19.00;54.20;;;;;;5076930;28;20035;-60
2024/03/24 13:30:39;;;;;;;109.35;63.33;;;19.10;54.10;;;;;;5074440;28;20051;-59
2024/03/24 13:33:24;;;;;;;125.30;72.32;;;19.20;54.00;;;;;;5083222;28;20397;-61
2024/03/24 13:36:29;;;;;;;173.57;100.80;;;19.30;53.90;;;;;;5074106;28;20090;-60
2024/03/24 13:39:31;;;;;;;129.77;72.15;;;19.30;53.80;;;;;;5067229;28;20119;-60
2024/03/24 13:42:29;;;;;;;135.07;79.82;;;19.40;53.90;;;;;;5066165;28;20404;-60
2024/03/24 13:45:24;;;;;;;125.45;71.22;;;19.50;54.00;;;;;;5077138;28;20047;-60
2024/03/24 13:48:15;;;;;;;110.72;63.60;;;19.50;53.90;;;;;;5066780;28;20232;-59
2024/03/24 13:51:02;;;;;;;111.68;60.55;;;19.70;54.20;;;;;;5069700;28;20054;-60
2024/03/24 13:53:48;;;;;;;93.38;52.42;;;19.80;54.20;;;;;;5078091;28;20097;-60
2024/03/24 13:56:33;;;;;;;89.13;51.10;;;19.80;54.00;;;;;;5074235;28;20047;-61
2024/03/24 13:59:17;;;;;;;84.78;46.50;;;19.90;53.90;;;;;;5075227;27;20067;-60
2024/03/24 14:02:03;;;;;;;78.63;42.38;;;20.00;53.90;;;;;;5065650;28;20048;-60
2024/03/24 14:04:47;;;;;;;75.38;40.38;;;20.10;53.90;;;;;;5065428;28;22805;-61
2024/03/24 14:07:32;;;;;;;68.88;38.08;;;20.20;53.80;;;;;;5088774;28;20051;-60
2024/03/24 14:10:18;;;;;;;64.30;35.90;;;20.30;53.70;;;;;;5073301;28;20078;-62
2024/03/24 14:13:17;;;;;;;64.55;35.53;;;20.40;53.60;;;;;;5076652;28;20101;-61
2024/03/24 14:16:05;;;;;;;57.75;30.75;;;20.50;53.30;;;;;;5066427;28;20046;-61
2024/03/24 14:19:02;;;;;;;54.35;28.75;;;20.60;53.40;;;;;;5066042;28;20050;-61
2024/03/24 14:21:49;;;;;;;52.03;27.63;;;20.70;53.30;;;;;;5069757;28;20073;-61